Time;durP1;ratioP1;P1;durP2;ratioP2;P2;SDS_P1;SDS_P2;PMS_P1;PMS_P2;Temp;Humidity;BMP_temperature;BMP_pressure;BME280_temperature;BME280_humidity;BME280_pressure;Samples;Min_cycle;Max_cycle;Signal;HPM_P1;HPM_P2
2022/05/23 00:00:53;;;;;;;6.43;5.47;;;;;;;;;;5063139;28;20405;-58
2022/05/23 00:03:20;;;;;;;5.90;5.40;;;;;;;;;;5053487;28;20457;-58
2022/05/23 00:05:46;;;;;;;5.90;5.40;;;;;;;;;;5054610;28;20522;-58
2022/05/23 00:08:12;;;;;;;11.53;5.27;;;;;;;;;;5062303;28;20937;-58
2022/05/23 00:10:38;;;;;;;7.97;6.13;;;;;;;;;;5069538;28;20388;-59
2022/05/23 00:13:05;;;;;;;7.80;6.17;;;;;;;;;;5064008;28;20383;-58
2022/05/23 00:15:31;;;;;;;6.77;5.80;;;;;;;;;;5073309;28;20391;-58
2022/05/23 00:17:57;;;;;;;9.00;5.60;;;;;;;;;;5071870;28;20474;-59
2022/05/23 00:20:24;;;;;;;9.53;6.27;;;;;;;;;;5062374;28;20414;-59
2022/05/23 00:22:50;;;;;;;6.10;5.50;;;;;;;;;;5052512;28;20380;-58
2022/05/23 00:25:16;;;;;;;9.27;6.10;;;;;;;;;;5060462;28;20434;-59
2022/05/23 00:27:43;;;;;;;7.63;6.93;;;;;;;;;;5058338;28;20496;-58
2022/05/23 00:30:11;;;;;;;11.90;6.30;;;;;;;;;;5054628;28;20914;-58
2022/05/23 00:35:21;;;;;;;7.87;5.97;;;;;;;;;;5054026;28;20438;-58
2022/05/23 00:37:48;;;;;;;9.50;5.50;;;;;;;;;;5053021;28;20388;-59
2022/05/23 00:40:26;;;;;;;7.37;5.67;;;;;;;;;;5056026;28;20465;-59
2022/05/23 00:45:37;;;;;;;8.53;6.60;;;;;;;;;;5056448;28;20489;-59
2022/05/23 00:48:03;;;;;;;8.13;6.30;;;;;;;;;;5053856;28;20381;-58
2022/05/23 00:50:32;;;;;;;9.90;6.43;;;;;;;;;;5072013;28;20433;-59
2022/05/23 00:52:58;;;;;;;7.60;6.30;;;;;;;;;;5071662;28;20834;-58
2022/05/23 00:55:26;;;;;;;6.70;6.07;;;;;;;;;;5064724;28;20429;-59
2022/05/23 00:57:53;;;;;;;6.23;5.73;;;;;;;;;;5056365;28;20376;-58
2022/05/23 01:00:19;;;;;;;6.73;6.00;;;;;;;;;;5056800;28;20393;-59
2022/05/23 01:02:48;;;;;;;9.87;6.00;;;;;;;;;;5070413;28;20375;-58
2022/05/23 01:05:14;;;;;;;6.60;6.10;;;;;;;;;;5067526;28;20440;-59
2022/05/23 01:07:40;;;;;;;7.90;6.30;;;;;;;;;;5051972;28;20407;-59
2022/05/23 01:10:09;;;;;;;7.00;6.07;;;;;;;;;;5055373;28;20416;-59
2022/05/23 01:12:35;;;;;;;6.63;5.93;;;;;;;;;;5068320;28;20410;-59
2022/05/23 01:15:03;;;;;;;6.10;5.60;;;;;;;;;;5061362;28;20411;-59
2022/05/23 01:17:29;;;;;;;7.33;5.77;;;;;;;;;;5053141;28;20417;-59
2022/05/23 01:19:56;;;;;;;9.87;5.50;;;;;;;;;;5065272;28;20955;-58
2022/05/23 01:22:27;;;;;;;6.80;6.20;;;;;;;;;;5065963;28;20417;-59
2022/05/23 01:25:03;;;;;;;7.10;6.00;;;;;;;;;;5058707;28;20440;-59
2022/05/23 01:27:29;;;;;;;8.70;6.80;;;;;;;;;;5063329;28;20454;-59
2022/05/23 01:29:55;;;;;;;10.00;6.90;;;;;;;;;;5053202;28;20961;-59
2022/05/23 01:32:21;;;;;;;6.83;6.20;;;;;;;;;;5055382;28;20500;-59
2022/05/23 01:34:48;;;;;;;9.83;7.00;;;;;;;;;;5051894;28;20408;-59
2022/05/23 01:37:14;;;;;;;14.77;7.50;;;;;;;;;;5054956;28;20427;-58
2022/05/23 01:39:40;;;;;;;10.07;6.97;;;;;;;;;;5064529;28;20396;-58
2022/05/23 01:42:06;;;;;;;8.03;6.70;;;;;;;;;;5068898;28;20396;-59
2022/05/23 01:44:33;;;;;;;10.70;7.10;;;;;;;;;;5071685;28;20471;-58
2022/05/23 01:46:59;;;;;;;8.27;6.63;;;;;;;;;;5070105;28;20487;-59
2022/05/23 01:49:25;;;;;;;9.33;6.80;;;;;;;;;;5071761;28;20494;-59
2022/05/23 01:51:51;;;;;;;8.27;7.03;;;;;;;;;;5068482;28;20379;-59
2022/05/23 01:54:17;;;;;;;10.00;6.33;;;;;;;;;;5052589;28;20510;-59
2022/05/23 01:56:43;;;;;;;7.43;6.17;;;;;;;;;;5061195;28;20420;-58
2022/05/23 02:01:53;;;;;;;8.50;6.23;;;;;;;;;;5066543;28;20550;-59
2022/05/23 02:04:19;;;;;;;8.63;6.73;;;;;;;;;;5068227;28;20560;-59
2022/05/23 02:06:45;;;;;;;7.47;6.57;;;;;;;;;;5056197;28;20380;-58
2022/05/23 02:09:12;;;;;;;8.57;7.00;;;;;;;;;;5061513;28;20410;-59
2022/05/23 02:11:38;;;;;;;9.77;7.43;;;;;;;;;;5056905;28;20406;-59
2022/05/23 02:14:03;;;;;;;7.67;6.90;;;;;;;;;;5055850;28;21002;-59
2022/05/23 02:16:29;;;;;;;9.83;7.43;;;;;;;;;;5059419;28;20971;-58
2022/05/23 02:18:55;;;;;;;9.47;8.27;;;;;;;;;;5051373;28;20403;-58
2022/05/23 02:21:21;;;;;;;10.33;7.77;;;;;;;;;;5060735;28;20504;-59
2022/05/23 02:23:47;;;;;;;10.67;7.20;;;;;;;;;;5069702;28;22163;-59
2022/05/23 02:26:13;;;;;;;8.33;7.37;;;;;;;;;;5052147;28;20492;-58
2022/05/23 02:28:39;;;;;;;9.10;8.20;;;;;;;;;;5071463;28;20421;-59
2022/05/23 02:31:05;;;;;;;8.53;7.70;;;;;;;;;;5053723;28;20396;-59
2022/05/23 02:33:31;;;;;;;12.50;8.00;;;;;;;;;;5054914;28;20837;-59
2022/05/23 02:35:57;;;;;;;8.70;7.90;;;;;;;;;;5071695;28;20438;-59
2022/05/23 02:38:23;;;;;;;9.20;7.00;;;;;;;;;;5056934;28;20474;-59
2022/05/23 02:40:49;;;;;;;7.10;6.37;;;;;;;;;;5066977;28;20433;-58
2022/05/23 02:43:15;;;;;;;8.53;6.77;;;;;;;;;;5074863;28;20394;-59
2022/05/23 02:45:41;;;;;;;7.67;5.90;;;;;;;;;;5059967;28;20785;-58
2022/05/23 02:48:08;;;;;;;11.43;6.57;;;;;;;;;;5070438;28;20440;-58
2022/05/23 02:50:34;;;;;;;6.50;5.90;;;;;;;;;;5074306;28;20419;-58
2022/05/23 02:53:00;;;;;;;12.53;6.50;;;;;;;;;;5060064;28;20407;-58
2022/05/23 02:55:26;;;;;;;7.63;5.37;;;;;;;;;;5056748;28;20890;-58
2022/05/23 02:57:51;;;;;;;7.37;6.10;;;;;;;;;;5059791;28;20392;-58
2022/05/23 03:00:18;;;;;;;8.20;5.70;;;;;;;;;;5074876;28;20758;-58
2022/05/23 03:03:02;;;;;;;8.30;5.83;;;;;;;;;;5074245;28;20401;-58
2022/05/23 03:05:29;;;;;;;11.80;5.70;;;;;;;;;;5054628;28;20468;-58
2022/05/23 03:07:55;;;;;;;5.87;5.30;;;;;;;;;;5054848;28;20419;-58
2022/05/23 03:10:21;;;;;;;6.83;5.90;;;;;;;;;;5055274;28;20429;-58
2022/05/23 03:12:47;;;;;;;7.23;5.97;;;;;;;;;;5054330;28;20475;-58
2022/05/23 03:15:13;;;;;;;6.10;5.50;;;;;;;;;;5054412;28;20514;-58
2022/05/23 03:17:40;;;;;;;5.53;5.07;;;;;;;;;;5065244;28;20421;-58
2022/05/23 03:20:06;;;;;;;5.57;5.07;;;;;;;;;;5061194;28;20411;-58
2022/05/23 03:28:02;;;;;;;9.90;5.30;;;;;;;;;;5055340;28;20439;-58
2022/05/23 03:30:28;;;;;;;5.90;5.40;;;;;;;;;;5070482;28;20388;-58
2022/05/23 03:32:54;;;;;;;4.83;4.33;;;;;;;;;;5053600;28;20719;-57
2022/05/23 03:35:20;;;;;;;5.43;4.93;;;;;;;;;;5069369;28;20439;-58
2022/05/23 03:37:46;;;;;;;6.13;4.53;;;;;;;;;;5061711;28;20415;-58
2022/05/23 03:40:12;;;;;;;4.83;4.30;;;;;;;;;;5065357;28;20462;-58
2022/05/23 03:42:38;;;;;;;4.77;4.27;;;;;;;;;;5073102;28;20453;-58
2022/05/23 03:45:06;;;;;;;5.90;4.43;;;;;;;;;;5060019;28;20438;-58
2022/05/23 03:47:32;;;;;;;4.43;3.40;;;;;;;;;;5063138;28;20422;-58
2022/05/23 03:49:58;;;;;;;4.20;3.80;;;;;;;;;;5061100;28;20539;-58
2022/05/23 03:52:24;;;;;;;5.03;4.50;;;;;;;;;;5053209;28;20419;-58
2022/05/23 03:54:50;;;;;;;4.63;3.90;;;;;;;;;;5056319;28;20549;-58
2022/05/23 03:57:16;;;;;;;6.97;4.10;;;;;;;;;;5073090;28;20397;-58
2022/05/23 03:59:42;;;;;;;5.47;4.63;;;;;;;;;;5072119;28;20758;-58
2022/05/23 04:02:09;;;;;;;7.00;3.93;;;;;;;;;;5072845;28;20479;-58
2022/05/23 04:04:35;;;;;;;6.17;3.93;;;;;;;;;;5062859;28;20437;-58
2022/05/23 04:07:02;;;;;;;4.63;4.23;;;;;;;;;;5053832;28;20478;-58
2022/05/23 04:09:28;;;;;;;8.90;4.97;;;;;;;;;;5053464;28;20400;-58
2022/05/23 04:11:55;;;;;;;7.97;4.73;;;;;;;;;;5063178;28;20550;-58
2022/05/23 04:14:21;;;;;;;4.80;4.40;;;;;;;;;;5055299;28;20874;-58
2022/05/23 04:16:47;;;;;;;8.17;4.20;;;;;;;;;;5055901;28;20460;-58
2022/05/23 04:19:13;;;;;;;4.43;4.03;;;;;;;;;;5072955;28;20402;-58
2022/05/23 04:21:41;;;;;;;5.90;3.97;;;;;;;;;;5064846;28;20401;-58
2022/05/23 04:24:07;;;;;;;5.97;3.73;;;;;;;;;;5072972;28;20512;-58
2022/05/23 04:26:33;;;;;;;5.97;4.00;;;;;;;;;;5064080;28;20753;-58
2022/05/23 04:28:59;;;;;;;3.90;3.60;;;;;;;;;;5073383;28;20504;-58
2022/05/23 04:31:25;;;;;;;3.97;3.67;;;;;;;;;;5056115;28;20882;-58
2022/05/23 04:36:35;;;;;;;4.30;4.00;;;;;;;;;;5069637;28;20394;-58
2022/05/23 04:39:01;;;;;;;4.50;4.10;;;;;;;;;;5069945;28;20397;-58
2022/05/23 04:41:27;;;;;;;3.70;3.40;;;;;;;;;;5061517;28;20537;-58
2022/05/23 04:43:53;;;;;;;4.30;3.57;;;;;;;;;;5052777;28;20450;-58
2022/05/23 04:46:19;;;;;;;3.77;3.47;;;;;;;;;;5066927;28;20983;-58
2022/05/23 04:51:30;;;;;;;7.10;3.60;;;;;;;;;;5052595;28;20406;-58
2022/05/23 04:53:56;;;;;;;6.20;3.27;;;;;;;;;;5070209;28;20430;-58
2022/05/23 04:56:23;;;;;;;4.13;3.70;;;;;;;;;;5063940;28;20927;-58
2022/05/23 04:58:49;;;;;;;5.07;4.20;;;;;;;;;;5070141;28;20411;-58
2022/05/23 05:01:15;;;;;;;4.27;3.77;;;;;;;;;;5064311;28;20428;-58
2022/05/23 05:03:41;;;;;;;4.67;4.03;;;;;;;;;;5055695;28;20455;-58
2022/05/23 05:06:07;;;;;;;5.70;4.23;;;;;;;;;;5071984;28;20778;-58
2022/05/23 05:08:33;;;;;;;4.33;3.80;;;;;;;;;;5066954;28;20765;-59
2022/05/23 05:11:01;;;;;;;4.00;3.70;;;;;;;;;;5057056;28;20954;-59
2022/05/23 05:13:28;;;;;;;3.40;3.10;;;;;;;;;;5062805;28;20421;-58
2022/05/23 05:15:58;;;;;;;3.80;3.50;;;;;;;;;;5070281;28;20435;-58
2022/05/23 05:18:24;;;;;;;5.37;4.13;;;;;;;;;;5070825;28;20376;-58
2022/05/23 05:20:50;;;;;;;5.50;3.90;;;;;;;;;;5070714;28;20845;-58
2022/05/23 05:23:16;;;;;;;4.63;4.23;;;;;;;;;;5053556;28;20410;-58
2022/05/23 05:25:42;;;;;;;5.23;4.73;;;;;;;;;;5069028;28;20462;-59
2022/05/23 05:28:08;;;;;;;5.93;3.70;;;;;;;;;;5052128;28;20408;-58
2022/05/23 05:30:39;;;;;;;4.23;3.93;;;;;;;;;;5053160;28;20398;-59
2022/05/23 05:33:09;;;;;;;7.37;4.30;;;;;;;;;;5051503;28;20408;-59
2022/05/23 05:35:35;;;;;;;6.03;3.83;;;;;;;;;;5070762;28;20474;-59
2022/05/23 05:38:04;;;;;;;3.60;3.23;;;;;;;;;;5071934;28;20443;-59
2022/05/23 05:40:31;;;;;;;5.33;4.10;;;;;;;;;;5054837;28;20509;-59
2022/05/23 05:43:00;;;;;;;5.53;4.00;;;;;;;;;;5071410;28;20379;-59
2022/05/23 05:45:34;;;;;;;3.57;3.37;;;;;;;;;;5053383;28;20459;-59
2022/05/23 05:48:01;;;;;;;6.93;3.60;;;;;;;;;;5059681;28;20429;-59
2022/05/23 05:50:29;;;;;;;3.63;3.33;;;;;;;;;;5053061;28;20921;-59
2022/05/23 05:52:57;;;;;;;4.20;3.80;;;;;;;;;;5054286;28;20431;-59
2022/05/23 05:55:23;;;;;;;7.90;3.57;;;;;;;;;;5057228;28;20499;-59
2022/05/23 05:57:49;;;;;;;4.33;3.60;;;;;;;;;;5052881;28;20420;-58
2022/05/23 06:00:15;;;;;;;4.27;3.87;;;;;;;;;;5067909;28;20418;-59
2022/05/23 06:02:41;;;;;;;4.67;4.27;;;;;;;;;;5069435;28;20921;-59
2022/05/23 06:05:07;;;;;;;4.37;4.07;;;;;;;;;;5056205;28;20465;-59
2022/05/23 06:13:04;;;;;;;5.60;4.40;;;;;;;;;;5055992;28;20451;-58
2022/05/23 06:15:29;;;;;;;3.73;3.40;;;;;;;;;;5071494;28;20432;-59
2022/05/23 06:17:55;;;;;;;5.43;3.40;;;;;;;;;;5073129;28;20422;-59
2022/05/23 06:20:23;;;;;;;4.27;3.87;;;;;;;;;;5074099;28;20504;-59
2022/05/23 06:22:50;;;;;;;3.63;3.33;;;;;;;;;;5073040;28;20419;-59
2022/05/23 06:25:16;;;;;;;12.73;4.50;;;;;;;;;;5071914;28;20525;-58
2022/05/23 06:27:43;;;;;;;7.90;4.40;;;;;;;;;;5055325;28;20496;-59
2022/05/23 06:30:10;;;;;;;4.10;3.80;;;;;;;;;;5075177;28;20492;-59
2022/05/23 06:32:36;;;;;;;4.23;3.90;;;;;;;;;;5064584;28;20518;-59
2022/05/23 06:35:07;;;;;;;4.73;4.33;;;;;;;;;;5071133;28;20438;-58
2022/05/23 06:37:34;;;;;;;3.60;3.27;;;;;;;;;;5075188;28;20419;-59
2022/05/23 06:40:00;;;;;;;6.17;3.97;;;;;;;;;;5065490;28;20424;-59
2022/05/23 06:42:26;;;;;;;4.43;4.03;;;;;;;;;;5055670;28;20415;-59
2022/05/23 06:44:52;;;;;;;3.77;3.30;;;;;;;;;;5056012;28;20471;-59
2022/05/23 06:47:18;;;;;;;3.70;3.40;;;;;;;;;;5055022;28;20492;-59
2022/05/23 06:49:44;;;;;;;3.50;3.20;;;;;;;;;;5055967;28;20489;-59
2022/05/23 06:52:10;;;;;;;3.53;3.23;;;;;;;;;;5055792;28;20464;-59
2022/05/23 06:54:36;;;;;;;3.80;3.50;;;;;;;;;;5073116;28;20466;-59
2022/05/23 06:57:02;;;;;;;4.90;3.57;;;;;;;;;;5075054;28;20503;-59
2022/05/23 06:59:28;;;;;;;3.67;3.37;;;;;;;;;;5055576;28;20424;-59
2022/05/23 07:01:54;;;;;;;5.57;2.90;;;;;;;;;;5054221;28;20744;-59
2022/05/23 07:04:20;;;;;;;7.10;5.10;;;;;;;;;;5071686;28;20461;-59
2022/05/23 07:12:23;;;;;;;3.27;2.90;;;;;;;;;;5054040;28;20446;-58
2022/05/23 07:14:50;;;;;;;3.80;3.50;;;;;;;;;;5054590;28;20423;-59
2022/05/23 07:17:16;;;;;;;3.30;3.00;;;;;;;;;;5054394;28;20512;-60
2022/05/23 07:19:42;;;;;;;4.40;2.70;;;;;;;;;;5074559;28;20415;-59
2022/05/23 07:22:09;;;;;;;8.50;3.80;;;;;;;;;;5073331;28;20490;-59
2022/05/23 07:24:35;;;;;;;5.93;3.30;;;;;;;;;;5056826;28;20475;-59
2022/05/23 07:27:02;;;;;;;3.60;3.30;;;;;;;;;;5054397;28;20932;-58
2022/05/23 07:29:28;;;;;;;8.57;3.27;;;;;;;;;;5070468;28;20412;-59
2022/05/23 07:31:56;;;;;;;3.70;3.37;;;;;;;;;;5073576;28;20401;-59
2022/05/23 07:34:22;;;;;;;7.23;2.90;;;;;;;;;;5072380;28;20476;-59
2022/05/23 07:36:49;;;;;;;5.20;3.40;;;;;;;;;;5074359;28;20414;-59
2022/05/23 07:39:15;;;;;;;3.43;3.13;;;;;;;;;;5057624;28;20424;-59
2022/05/23 07:41:42;;;;;;;3.83;3.30;;;;;;;;;;5065467;28;20918;-59
2022/05/23 07:44:09;;;;;;;4.20;2.80;;;;;;;;;;5067635;28;20498;-59
2022/05/23 07:46:35;;;;;;;4.67;3.10;;;;;;;;;;5074030;28;20404;-59
2022/05/23 07:49:02;;;;;;;3.57;2.93;;;;;;;;;;5059840;28;20505;-59
2022/05/23 07:51:30;;;;;;;4.00;3.63;;;;;;;;;;5053321;28;20495;-59
2022/05/23 08:02:11;;;;;;;2.87;2.67;;;;;;;;;;5066041;28;20404;-59
2022/05/23 08:04:38;;;;;;;3.50;3.10;;;;;;;;;;5073484;28;20509;-58
2022/05/23 08:07:04;;;;;;;3.30;3.00;;;;;;;;;;5072953;28;20420;-59
2022/05/23 08:09:30;;;;;;;4.70;3.50;;;;;;;;;;5073506;28;20405;-59
2022/05/23 08:11:57;;;;;;;3.27;2.73;;;;;;;;;;5055865;28;20413;-59
2022/05/23 08:14:23;;;;;;;3.43;3.13;;;;;;;;;;5053627;28;20487;-59
2022/05/23 08:16:50;;;;;;;4.10;3.40;;;;;;;;;;5063473;28;20416;-59
2022/05/23 08:19:16;;;;;;;4.77;3.00;;;;;;;;;;5053091;28;20406;-59
2022/05/23 08:21:46;;;;;;;6.13;3.23;;;;;;;;;;5052248;28;20423;-59
2022/05/23 08:24:13;;;;;;;2.93;2.70;;;;;;;;;;5063856;28;20459;-59
2022/05/23 08:26:39;;;;;;;2.90;2.40;;;;;;;;;;5073333;28;20885;-59
2022/05/23 08:29:05;;;;;;;2.97;2.70;;;;;;;;;;5061713;28;20411;-59
2022/05/23 08:31:31;;;;;;;4.27;3.27;;;;;;;;;;5052343;28;20636;-59
2022/05/23 08:33:57;;;;;;;5.07;2.60;;;;;;;;;;5061345;28;20477;-61
2022/05/23 08:36:23;;;;;;;3.43;3.13;;;;;;;;;;5054830;28;20421;-61
2022/05/23 08:38:49;;;;;;;2.80;2.60;;;;;;;;;;5051626;28;20897;-60
2022/05/23 08:41:15;;;;;;;3.50;3.17;;;;;;;;;;5050447;28;20406;-60
2022/05/23 08:44:05;;;;;;;3.70;2.83;;;;;;;;;;5059012;28;20444;-60
2022/05/23 08:46:46;;;;;;;8.53;2.87;;;;;;;;;;5050949;28;20440;-60
2022/05/23 08:49:32;;;;;;;4.50;2.53;;;;;;;;;;5051039;28;20433;-60
2022/05/23 08:51:58;;;;;;;5.37;3.27;;;;;;;;;;5009748;28;20409;-60
2022/05/23 08:54:27;;;;;;;2.60;2.40;;;;;;;;;;5052005;28;20538;-60
2022/05/23 08:56:54;;;;;;;7.37;2.67;;;;;;;;;;5052717;28;20405;-60
2022/05/23 08:59:38;;;;;;;3.40;2.90;;;;;;;;;;5052492;28;20407;-59
2022/05/23 09:02:22;;;;;;;4.80;3.03;;;;;;;;;;5051961;28;20918;-60
2022/05/23 09:04:53;;;;;;;2.43;2.33;;;;;;;;;;5052369;28;20521;-59
2022/05/23 09:07:25;;;;;;;5.73;2.93;;;;;;;;;;5052657;28;20443;-60
2022/05/23 09:09:51;;;;;;;5.40;2.73;;;;;;;;;;5052355;28;20885;-60
2022/05/23 09:12:17;;;;;;;4.53;2.53;;;;;;;;;;5051884;28;20447;-59
2022/05/23 09:14:43;;;;;;;2.97;2.60;;;;;;;;;;5052306;28;20519;-59
2022/05/23 09:17:37;;;;;;;2.50;2.30;;;;;;;;;;5052306;28;20913;-60
2022/05/23 09:20:06;;;;;;;3.70;2.67;;;;;;;;;;5049501;28;20424;-61
2022/05/23 09:22:47;;;;;;;3.57;2.90;;;;;;;;;;5051654;28;20889;-60
2022/05/23 09:25:16;;;;;;;8.10;2.70;;;;;;;;;;5053166;28;20453;-60
2022/05/23 09:28:02;;;;;;;4.73;2.60;;;;;;;;;;5063704;28;20454;-60
2022/05/23 09:30:28;;;;;;;4.03;2.90;;;;;;;;;;5025731;28;20744;-60
2022/05/23 09:32:55;;;;;;;2.97;2.70;;;;;;;;;;5052936;28;20409;-60
2022/05/23 09:35:23;;;;;;;4.93;2.37;;;;;;;;;;5062533;28;20948;-59
2022/05/23 09:38:04;;;;;;;3.87;2.20;;;;;;;;;;5052012;28;20902;-59
2022/05/23 09:40:31;;;;;;;2.73;2.47;;;;;;;;;;5067941;28;20495;-59
2022/05/23 09:49:02;;;;;;;5.20;2.50;;;;;;;;;;5051972;28;20438;-60
2022/05/23 09:51:28;;;;;;;2.70;2.50;;;;;;;;;;5052032;28;20405;-60
2022/05/23 09:53:55;;;;;;;4.23;2.60;;;;;;;;;;5051523;28;20421;-58
2022/05/23 09:56:22;;;;;;;3.90;2.10;;;;;;;;;;5060953;28;20440;-60
2022/05/23 09:58:48;;;;;;;2.70;2.50;;;;;;;;;;5054618;28;20509;-60
2022/05/23 10:01:24;;;;;;;3.20;2.37;;;;;;;;;;5054512;28;20172;-59
2022/05/23 10:03:51;;;;;;;3.33;2.37;;;;;;;;;;5071346;28;20455;-59
2022/05/23 10:06:17;;;;;;;2.30;2.10;;;;;;;;;;5071796;28;20396;-59
2022/05/23 10:08:45;;;;;;;2.57;2.37;;;;;;;;;;5070470;28;20404;-60
2022/05/23 10:11:21;;;;;;;4.67;2.70;;;;;;;;;;5058131;28;20811;-59
2022/05/23 10:13:52;;;;;;;2.60;2.40;;;;;;;;;;5071358;28;20404;-60
2022/05/23 10:16:23;;;;;;;2.77;2.00;;;;;;;;;;5070460;28;20900;-60
2022/05/23 10:18:52;;;;;;;5.40;2.60;;;;;;;;;;5051457;28;20405;-60
2022/05/23 10:21:26;;;;;;;2.57;2.10;;;;;;;;;;5050992;28;20492;-60
2022/05/23 10:24:18;;;;;;;4.23;2.40;;;;;;;;;;5071163;28;20989;-60
2022/05/23 10:26:52;;;;;;;4.10;2.20;;;;;;;;;;5041426;28;20978;-60
2022/05/23 10:29:42;;;;;;;2.10;1.90;;;;;;;;;;5051180;28;20401;-59
2022/05/23 10:32:13;;;;;;;3.77;2.37;;;;;;;;;;5061225;28;20412;-59
2022/05/23 10:34:45;;;;;;;3.23;2.00;;;;;;;;;;5061423;28;20443;-58
2022/05/23 10:37:16;;;;;;;3.10;2.30;;;;;;;;;;5071090;28;20803;-60
2022/05/23 10:42:47;;;;;;;4.93;2.40;;;;;;;;;;5050723;28;20492;-60
2022/05/23 10:45:22;;;;;;;3.17;1.97;;;;;;;;;;5064196;28;20464;-60
2022/05/23 10:48:07;;;;;;;4.03;1.80;;;;;;;;;;5071118;28;20427;-60
2022/05/23 10:50:40;;;;;;;4.93;2.43;;;;;;;;;;5064567;28;20405;-59
2022/05/23 10:53:09;;;;;;;2.10;1.90;;;;;;;;;;5058028;28;20420;-60
2022/05/23 10:55:50;;;;;;;4.83;1.83;;;;;;;;;;5071524;28;20462;-59
2022/05/23 10:58:25;;;;;;;5.23;2.10;;;;;;;;;;5053829;28;20476;-59
2022/05/23 11:00:58;;;;;;;4.03;1.97;;;;;;;;;;5069841;28;20953;-58
2022/05/23 11:03:29;;;;;;;2.13;1.40;;;;;;;;;;5074826;28;20408;-59
2022/05/23 11:05:55;;;;;;;8.73;2.40;;;;;;;;;;5073122;28;20440;-60
2022/05/23 11:08:36;;;;;;;2.33;1.90;;;;;;;;;;5074550;28;20737;-59
2022/05/23 11:11:08;;;;;;;1.80;1.70;;;;;;;;;;5057333;28;20405;-59
2022/05/23 11:13:51;;;;;;;5.17;2.00;;;;;;;;;;5054626;28;20385;-59
2022/05/23 11:16:29;;;;;;;3.40;1.90;;;;;;;;;;5055604;28;20470;-59
2022/05/23 11:19:01;;;;;;;5.73;2.10;;;;;;;;;;5053354;28;20447;-60
2022/05/23 11:21:33;;;;;;;2.80;1.97;;;;;;;;;;5071947;28;20778;-59
2022/05/23 11:24:03;;;;;;;4.50;4.10;;;;;;;;;;5072586;28;20863;-60
2022/05/23 11:26:52;;;;;;;3.10;2.10;;;;;;;;;;5074344;28;20403;-59
2022/05/23 11:34:52;;;;;;;3.73;3.20;;;;;;;;;;5073152;28;20517;-60
2022/05/23 11:39:57;;;;;;;4.67;3.40;;;;;;;;;;5054275;28;20397;-60
2022/05/23 11:42:42;;;;;;;2.40;1.90;;;;;;;;;;5053476;28;20393;-59
2022/05/23 11:47:57;;;;;;;4.77;2.20;;;;;;;;;;5054645;28;20408;-59
2022/05/23 11:50:26;;;;;;;5.53;5.00;;;;;;;;;;5061856;28;20416;-59
2022/05/23 11:53:04;;;;;;;2.93;2.07;;;;;;;;;;5069980;28;21446;-57
2022/05/23 11:55:48;;;;;;;3.07;2.27;;;;;;;;;;5065767;28;20440;-58
2022/05/23 11:58:33;;;;;;;3.30;1.93;;;;;;;;;;5072883;28;20412;-58
2022/05/23 12:01:11;;;;;;;6.23;5.67;;;;;;;;;;5073070;28;20926;-58
2022/05/23 12:03:49;;;;;;;3.50;2.80;;;;;;;;;;5065420;28;20470;-58
2022/05/23 12:06:18;;;;;;;3.00;2.40;;;;;;;;;;5053645;28;20488;-59
2022/05/23 12:09:05;;;;;;;2.53;2.33;;;;;;;;;;5062272;28;20405;-59
2022/05/23 12:11:31;;;;;;;2.47;2.27;;;;;;;;;;5073138;28;20408;-57
2022/05/23 12:13:58;;;;;;;3.10;1.97;;;;;;;;;;5060751;28;20413;-58
2022/05/23 12:16:30;;;;;;;1.80;1.70;;;;;;;;;;5072384;28;20182;-58
2022/05/23 12:19:12;;;;;;;3.60;2.30;;;;;;;;;;5064801;28;20420;-58
2022/05/23 12:21:38;;;;;;;3.80;2.40;;;;;;;;;;5053119;28;20836;-58
2022/05/23 12:24:19;;;;;;;2.17;2.03;;;;;;;;;;5053684;28;20445;-58
2022/05/23 12:26:50;;;;;;;3.50;3.07;;;;;;;;;;5053535;28;20413;-59
2022/05/23 12:29:31;;;;;;;3.50;2.70;;;;;;;;;;5053775;28;20417;-59
2022/05/23 12:32:21;;;;;;;5.73;2.40;;;;;;;;;;5052529;28;20456;-59
2022/05/23 12:34:48;;;;;;;3.30;2.30;;;;;;;;;;5055070;28;21010;-58
2022/05/23 12:37:16;;;;;;;2.90;2.07;;;;;;;;;;5052890;28;20406;-58
2022/05/23 12:40:01;;;;;;;4.40;2.70;;;;;;;;;;5069048;28;20412;-59
2022/05/23 12:42:37;;;;;;;2.63;2.20;;;;;;;;;;5072231;28;20758;-57
2022/05/23 12:45:09;;;;;;;4.33;2.90;;;;;;;;;;5069687;28;20534;-58
2022/05/23 12:47:38;;;;;;;3.00;2.20;;;;;;;;;;5064253;28;20535;-59
2022/05/23 12:50:21;;;;;;;2.70;2.50;;;;;;;;;;5071383;28;20408;-58
2022/05/23 12:53:06;;;;;;;2.70;2.20;;;;;;;;;;5071493;28;20909;-58
2022/05/23 12:55:35;;;;;;;3.97;2.63;;;;;;;;;;5072582;28;20928;-58
2022/05/23 12:58:25;;;;;;;2.30;2.10;;;;;;;;;;5071114;28;20916;-59
2022/05/23 13:00:55;;;;;;;6.20;3.20;;;;;;;;;;5052915;28;20516;-59
2022/05/23 13:03:36;;;;;;;3.33;3.03;;;;;;;;;;5056200;28;20408;-59
2022/05/23 13:06:02;;;;;;;2.90;2.60;;;;;;;;;;5051625;28;21055;-59
2022/05/23 13:08:34;;;;;;;3.03;2.30;;;;;;;;;;5054112;28;20431;-58
2022/05/23 13:11:05;;;;;;;2.97;2.67;;;;;;;;;;5071428;28;20899;-59
2022/05/23 13:13:36;;;;;;;2.77;2.50;;;;;;;;;;5070380;28;20479;-58
2022/05/23 13:16:15;;;;;;;3.57;2.87;;;;;;;;;;5072212;28;20942;-58
2022/05/23 13:24:12;;;;;;;3.60;3.00;;;;;;;;;;5061272;28;20466;-58
2022/05/23 13:26:38;;;;;;;5.23;2.70;;;;;;;;;;5072086;28;20409;-58
2022/05/23 13:29:09;;;;;;;3.07;2.70;;;;;;;;;;5063389;28;20414;-58
2022/05/23 13:31:35;;;;;;;3.03;2.80;;;;;;;;;;5051414;28;20769;-58
2022/05/23 13:34:03;;;;;;;3.87;2.83;;;;;;;;;;5059237;28;20412;-58
2022/05/23 13:36:43;;;;;;;3.23;3.00;;;;;;;;;;5072051;28;20416;-58
2022/05/23 13:39:16;;;;;;;2.90;2.80;;;;;;;;;;5067933;28;20423;-58
2022/05/23 13:41:43;;;;;;;3.33;3.13;;;;;;;;;;5065419;28;20428;-58
2022/05/23 13:44:19;;;;;;;4.60;3.40;;;;;;;;;;5055459;28;20464;-57
2022/05/23 13:46:45;;;;;;;4.37;2.97;;;;;;;;;;5056028;28;20892;-58
2022/05/23 13:49:11;;;;;;;3.43;2.93;;;;;;;;;;5071817;28;20400;-57
2022/05/23 13:51:40;;;;;;;5.40;3.10;;;;;;;;;;5071289;28;20487;-58
2022/05/23 13:54:10;;;;;;;6.13;3.17;;;;;;;;;;5058704;28;20466;-58
2022/05/23 13:56:38;;;;;;;3.47;3.17;;;;;;;;;;5056316;28;20931;-57
2022/05/23 13:59:06;;;;;;;4.60;3.67;;;;;;;;;;5071696;28;20428;-58
2022/05/23 14:01:51;;;;;;;3.43;3.20;;;;;;;;;;5069248;28;20462;-58
2022/05/23 14:04:18;;;;;;;3.30;3.00;;;;;;;;;;5052949;28;20471;-58
2022/05/23 14:06:48;;;;;;;3.60;3.20;;;;;;;;;;5068633;28;20461;-58
2022/05/23 14:09:14;;;;;;;4.00;3.70;;;;;;;;;;5052070;28;20415;-59
2022/05/23 14:11:48;;;;;;;6.13;3.80;;;;;;;;;;5054752;28;20419;-58
2022/05/23 14:14:20;;;;;;;4.60;4.13;;;;;;;;;;5071273;28;20431;-58
2022/05/23 14:16:51;;;;;;;5.57;3.40;;;;;;;;;;5064537;28;20397;-58
2022/05/23 14:19:20;;;;;;;7.60;4.40;;;;;;;;;;5051618;28;20760;-58
2022/05/23 14:21:46;;;;;;;6.80;4.10;;;;;;;;;;5051781;28;20856;-57
2022/05/23 14:24:16;;;;;;;7.23;3.67;;;;;;;;;;5062150;28;20464;-58
2022/05/23 14:26:42;;;;;;;6.03;3.80;;;;;;;;;;5056608;28;20444;-58
2022/05/23 14:29:14;;;;;;;13.70;4.07;;;;;;;;;;5071159;28;20432;-58
2022/05/23 14:31:46;;;;;;;4.40;4.00;;;;;;;;;;5062093;28;20400;-58
2022/05/23 14:34:19;;;;;;;5.03;4.27;;;;;;;;;;5054686;28;20421;-57
2022/05/23 14:36:52;;;;;;;6.13;3.90;;;;;;;;;;5054937;28;20893;-57
2022/05/23 14:39:22;;;;;;;7.77;4.67;;;;;;;;;;5054928;28;20963;-56
2022/05/23 14:41:49;;;;;;;5.80;4.10;;;;;;;;;;5054420;28;20409;-57
2022/05/23 14:44:15;;;;;;;5.03;4.50;;;;;;;;;;5068490;28;20452;-56
2022/05/23 14:47:07;;;;;;;7.73;5.00;;;;;;;;;;5073094;28;20423;-57
2022/05/23 14:49:55;;;;;;;5.10;4.60;;;;;;;;;;5051748;28;20425;-57
2022/05/23 14:52:24;;;;;;;6.73;4.73;;;;;;;;;;5053857;28;20420;-57
2022/05/23 15:00:37;;;;;;;7.70;4.37;;;;;;;;;;5074688;28;20411;-57
2022/05/23 15:03:04;;;;;;;5.43;4.93;;;;;;;;;;5053858;28;20389;-57
2022/05/23 15:05:30;;;;;;;6.87;4.23;;;;;;;;;;5054525;28;20473;-57
2022/05/23 15:07:59;;;;;;;5.10;4.70;;;;;;;;;;5054438;28;20401;-58
2022/05/23 15:10:25;;;;;;;5.93;4.90;;;;;;;;;;5054365;28;20413;-58
2022/05/23 15:12:52;;;;;;;6.40;4.70;;;;;;;;;;5056177;28;20408;-57
2022/05/23 15:15:21;;;;;;;5.20;4.80;;;;;;;;;;5066401;28;20429;-58
2022/05/23 15:17:47;;;;;;;5.23;4.73;;;;;;;;;;5066425;28;20424;-57
2022/05/23 15:20:13;;;;;;;5.90;4.83;;;;;;;;;;5054224;28;20810;-58
2022/05/23 15:22:41;;;;;;;6.83;4.80;;;;;;;;;;5062022;28;20405;-58
2022/05/23 15:25:09;;;;;;;6.30;4.97;;;;;;;;;;5073990;28;20551;-57
2022/05/23 15:27:35;;;;;;;7.70;5.37;;;;;;;;;;5074173;28;20397;-57
2022/05/23 15:30:04;;;;;;;5.47;4.97;;;;;;;;;;5074043;28;20410;-57
2022/05/23 15:32:30;;;;;;;5.93;5.33;;;;;;;;;;5073406;28;20760;-58
2022/05/23 15:34:56;;;;;;;5.63;5.13;;;;;;;;;;5062953;28;20443;-58
2022/05/23 15:37:22;;;;;;;6.80;5.30;;;;;;;;;;5064287;28;20429;-58
2022/05/23 15:39:48;;;;;;;7.20;5.57;;;;;;;;;;5073840;28;20400;-57
2022/05/23 15:42:25;;;;;;;6.40;5.80;;;;;;;;;;5072885;28;20913;-58
2022/05/23 15:44:52;;;;;;;9.50;5.50;;;;;;;;;;5073798;28;21175;-57
2022/05/23 15:47:20;;;;;;;8.73;5.87;;;;;;;;;;5073734;28;20535;-58
2022/05/23 15:49:46;;;;;;;7.53;5.90;;;;;;;;;;5073705;28;20404;-58
2022/05/23 15:52:11;;;;;;;16.80;6.07;;;;;;;;;;5073038;28;20396;-57
2022/05/23 15:54:37;;;;;;;18.37;7.00;;;;;;;;;;5073702;28;20475;-57
2022/05/23 15:57:04;;;;;;;10.90;6.97;;;;;;;;;;5071676;28;20423;-58
2022/05/23 15:59:30;;;;;;;7.70;6.20;;;;;;;;;;5061349;28;20416;-57
2022/05/23 16:01:56;;;;;;;11.13;6.57;;;;;;;;;;5070015;28;20423;-57
2022/05/23 16:04:23;;;;;;;9.13;6.33;;;;;;;;;;5063034;28;20470;-57